createdAt,value
2018-01-31T01:54:05.232Z,90.90
2018-01-31T01:56:33.805Z,90.90
2018-01-31T02:16:19.093Z,91.30
2018-01-31T02:21:33.057Z,90.90
2018-01-31T02:24:01.301Z,91.00
2018-01-31T02:26:30.760Z,91.00
2018-01-31T02:28:59.089Z,91.00
2018-01-31T02:31:27.475Z,91.00
2018-01-31T02:33:57.073Z,91.00
2018-01-31T02:53:41.960Z,90.90
2018-01-31T02:56:11.235Z,91.00
2018-01-31T02:58:39.607Z,91.00
2018-01-31T03:03:59.062Z,91.00
2018-01-31T03:06:28.253Z,91.00
2018-01-31T03:08:57.516Z,90.90
2018-01-31T03:11:26.337Z,90.80
2018-01-31T03:31:12.268Z,90.70
2018-01-31T03:33:41.113Z,90.60
2018-01-31T03:36:09.729Z,90.70
2018-01-31T03:38:39.298Z,90.50
2018-01-31T03:41:08.617Z,90.30
2018-01-31T03:43:37.202Z,90.20
2018-01-31T03:46:06.087Z,90.10
2018-01-31T03:48:35.393Z,89.90
2018-01-31T03:51:04.151Z,89.80
2018-01-31T04:10:49.796Z,89.80
2018-01-31T04:13:18.351Z,89.70
2018-01-31T04:15:47.006Z,89.70
2018-01-31T04:18:15.253Z,89.30
2018-01-31T04:20:44.373Z,88.90
2018-01-31T04:23:13.668Z,89.00
2018-01-31T04:25:41.873Z,88.60
2018-01-31T04:28:11.837Z,89.50
2018-01-31T04:30:40.327Z,89.40
2018-01-31T04:50:27.764Z,90.50
2018-01-31T04:52:55.850Z,90.70
2018-01-31T04:55:24.530Z,90.70
2018-01-31T04:57:52.935Z,91.10
2018-01-31T05:00:21.778Z,91.10
2018-01-31T05:02:51.584Z,91.00
2018-01-31T05:05:21.221Z,91.10
2018-01-31T05:07:49.918Z,91.30
2018-01-31T05:10:18.442Z,91.10
2018-01-31T05:30:03.138Z,91.70
2018-01-31T05:32:31.911Z,91.70
2018-01-31T05:35:00.130Z,91.90
2018-01-31T05:37:29.223Z,91.70
2018-01-31T05:39:57.650Z,91.70
2018-01-31T05:42:27.502Z,91.60
2018-01-31T05:44:56.563Z,91.60
2018-01-31T05:47:26.105Z,91.80
2018-01-31T05:49:54.830Z,91.60
2018-01-31T06:09:41.121Z,91.80
2018-01-31T06:12:10.501Z,91.80
2018-01-31T06:14:40.053Z,92.00
2018-01-31T06:17:08.430Z,91.90
2018-01-31T06:19:37.167Z,91.90
2018-01-31T06:22:06.677Z,91.70
2018-01-31T06:24:35.446Z,91.80
2018-01-31T06:27:04.283Z,91.60
2018-01-31T06:29:32.780Z,91.80
2018-01-31T06:49:17.352Z,91.70
2018-01-31T06:51:46.045Z,91.60
2018-01-31T06:54:15.926Z,91.70
2018-01-31T06:56:44.890Z,91.70
2018-01-31T06:59:15.076Z,91.80
2018-01-31T07:01:44.168Z,91.80
2018-01-31T07:04:13.394Z,91.80
2018-01-31T07:06:42.135Z,91.60
2018-01-31T07:09:11.260Z,91.60
2018-01-31T07:28:56.025Z,91.10
2018-01-31T07:31:25.597Z,91.40
2018-01-31T07:33:54.805Z,91.30
2018-01-31T07:36:23.505Z,91.10
2018-01-31T07:38:52.495Z,90.40
2018-01-31T07:41:21.769Z,90.30
2018-01-31T07:43:50.246Z,90.30
2018-01-31T07:46:20.034Z,90.00
2018-01-31T07:48:48.206Z,88.50
2018-01-31T08:08:32.286Z,81.70
2018-01-31T08:11:01.491Z,82.00
2018-01-31T08:13:30.122Z,82.00
2018-01-31T08:15:58.776Z,81.60
2018-01-31T08:18:26.832Z,79.80
2018-01-31T08:20:56.297Z,78.30
2018-01-31T08:23:25.221Z,78.90
2018-01-31T08:25:54.224Z,77.40
2018-01-31T08:28:22.944Z,76.70
2018-01-31T08:48:10.492Z,72.70
2018-01-31T08:50:40.136Z,71.10
2018-01-31T08:53:08.740Z,67.30
2018-01-31T08:55:37.746Z,64.00
2018-01-31T08:58:06.322Z,62.40
2018-01-31T09:00:35.827Z,59.10
2018-01-31T09:03:04.698Z,55.80
2018-01-31T09:05:33.328Z,55.10
2018-01-31T09:08:02.574Z,51.50
2018-01-31T09:27:48.158Z,44.00
2018-01-31T09:30:17.800Z,42.30
2018-01-31T09:32:46.353Z,42.20
2018-01-31T09:35:15.529Z,43.00
2018-01-31T09:37:44.518Z,44.20
2018-01-31T09:40:13.702Z,44.30
2018-01-31T09:42:42.414Z,43.50
2018-01-31T09:45:14.801Z,43.10
2018-01-31T09:47:43.425Z,42.40
2018-01-31T10:08:52.410Z,39.20
2018-01-31T10:11:20.597Z,39.90
2018-01-31T10:13:49.245Z,40.40
2018-01-31T10:16:17.435Z,39.50
2018-01-31T10:18:45.965Z,38.40
2018-01-31T10:21:14.129Z,39.40
2018-01-31T10:23:42.542Z,41.60
2018-01-31T10:26:10.890Z,42.10
2018-01-31T10:28:39.060Z,40.10
2018-01-31T10:48:23.855Z,40.00
2018-01-31T10:50:52.271Z,40.80
2018-01-31T10:53:20.560Z,40.70
2018-01-31T10:58:17.581Z,40.10
2018-01-31T11:00:47.575Z,43.00
2018-01-31T11:03:17.014Z,43.00
2018-01-31T11:05:45.499Z,43.20
2018-01-31T11:08:13.972Z,42.80
2018-01-31T11:27:59.364Z,39.10
2018-01-31T11:30:28.452Z,37.50
2018-01-31T11:32:57.116Z,37.30
2018-01-31T11:35:26.376Z,37.20
2018-01-31T11:37:55.254Z,38.40
2018-01-31T11:40:23.944Z,38.70
2018-01-31T11:42:52.494Z,40.50
2018-01-31T11:45:20.931Z,39.40
2018-01-31T11:47:49.228Z,37.40
2018-01-31T12:07:32.652Z,43.10
2018-01-31T12:10:02.433Z,43.90
2018-01-31T12:12:31.703Z,44.50
2018-01-31T12:15:01.055Z,45.90
2018-01-31T12:17:30.855Z,47.40
2018-01-31T12:19:59.331Z,47.70
2018-01-31T12:22:28.075Z,47.30
2018-01-31T12:24:56.631Z,46.60
2018-01-31T12:27:26.178Z,47.60
2018-01-31T12:47:12.413Z,48.90
2018-01-31T12:49:40.830Z,48.60
2018-01-31T12:52:09.998Z,48.50
2018-01-31T12:54:38.979Z,47.30
2018-01-31T12:57:08.438Z,48.40
2018-01-31T12:59:36.667Z,47.70
2018-01-31T13:02:06.057Z,47.50
2018-01-31T13:04:34.833Z,47.50
2018-01-31T13:07:03.717Z,47.50
2018-01-31T13:26:50.351Z,47.60
2018-01-31T13:29:20.294Z,49.90
2018-01-31T13:31:49.203Z,49.80
2018-01-31T13:34:18.310Z,50.00
2018-01-31T13:36:48.031Z,51.10
2018-01-31T13:39:16.627Z,52.10
2018-01-31T13:41:45.645Z,52.20
2018-01-31T13:44:15.652Z,52.90
2018-01-31T13:46:43.819Z,53.10
2018-01-31T14:06:28.043Z,54.40
2018-01-31T14:08:57.571Z,54.40
2018-01-31T14:11:26.697Z,54.90
2018-01-31T14:13:56.375Z,55.60
2018-01-31T14:16:26.215Z,55.90
2018-01-31T14:18:55.125Z,55.80
2018-01-31T14:21:23.904Z,55.80
2018-01-31T14:23:52.713Z,56.10
2018-01-31T14:26:21.619Z,56.20
2018-01-31T14:46:07.317Z,57.90
2018-01-31T14:48:36.480Z,57.80
2018-01-31T14:51:04.990Z,58.20
2018-01-31T14:53:33.091Z,58.10
2018-01-31T14:56:01.315Z,58.50
2018-01-31T14:58:30.740Z,58.20
2018-01-31T15:00:58.769Z,58.00
2018-01-31T15:03:27.022Z,58.30
2018-01-31T15:05:56.449Z,58.20
2018-01-31T15:25:42.378Z,59.60
2018-01-31T15:28:11.510Z,59.80
2018-01-31T15:30:40.250Z,60.10
2018-01-31T15:33:08.436Z,59.90
2018-01-31T15:35:36.925Z,59.90
2018-01-31T15:38:05.185Z,60.10
2018-01-31T15:40:33.833Z,60.20
2018-01-31T15:43:02.994Z,60.00
2018-01-31T15:45:32.108Z,60.00
2018-01-31T16:05:18.980Z,67.20
2018-01-31T16:07:48.704Z,71.30
2018-01-31T16:10:17.781Z,73.70
2018-01-31T16:12:46.095Z,73.60
2018-01-31T16:15:15.258Z,75.00
2018-01-31T16:17:44.410Z,75.60
2018-01-31T16:20:13.695Z,75.80
2018-01-31T16:22:42.102Z,76.20
2018-01-31T16:25:11.619Z,77.40
2018-01-31T16:44:59.499Z,68.70
2018-01-31T16:47:27.979Z,68.50
2018-01-31T16:49:57.750Z,67.30
2018-01-31T16:52:26.178Z,67.70
2018-01-31T16:54:54.371Z,66.60
2018-01-31T16:57:23.044Z,66.50
2018-01-31T16:59:51.798Z,66.20
2018-01-31T17:02:20.781Z,66.00
2018-01-31T17:04:49.897Z,66.50
2018-01-31T17:24:34.816Z,66.80
2018-01-31T17:27:03.767Z,65.90
2018-01-31T17:29:32.595Z,65.90
2018-01-31T17:32:01.267Z,65.70
2018-01-31T17:34:29.801Z,65.60
2018-01-31T17:36:58.621Z,65.50
2018-01-31T17:39:27.334Z,65.80
2018-01-31T17:41:56.859Z,65.90
2018-01-31T17:44:25.802Z,67.00
2018-01-31T18:04:11.020Z,68.10
2018-01-31T18:06:41.327Z,69.40
2018-01-31T18:09:09.735Z,69.40
2018-01-31T18:11:38.908Z,69.10
2018-01-31T18:14:08.922Z,66.80
2018-01-31T18:16:38.558Z,66.80
2018-01-31T18:19:07.175Z,66.30
2018-01-31T18:21:36.279Z,65.70
2018-01-31T18:24:05.536Z,65.60
2018-01-31T18:43:50.426Z,62.50
2018-01-31T18:46:19.247Z,62.00
2018-01-31T18:48:47.660Z,62.20
2018-01-31T18:51:16.452Z,62.40
2018-01-31T18:53:44.892Z,62.10
2018-01-31T18:56:13.165Z,62.70
2018-01-31T18:58:42.558Z,62.50
2018-01-31T19:01:11.681Z,62.70
2018-01-31T19:03:40.769Z,63.00
2018-01-31T19:23:26.743Z,63.00
2018-01-31T19:25:55.804Z,63.20
2018-01-31T19:28:24.765Z,63.30
2018-01-31T19:30:53.159Z,63.10
2018-01-31T19:33:22.236Z,63.20
2018-01-31T19:35:50.500Z,63.20
2018-01-31T19:38:19.183Z,64.00
2018-01-31T19:40:47.654Z,63.80
2018-01-31T19:43:16.665Z,63.60
2018-01-31T20:03:01.682Z,63.90
2018-01-31T20:05:29.944Z,63.50
2018-01-31T20:07:58.546Z,63.50
2018-01-31T20:10:26.914Z,63.60
2018-01-31T20:12:56.314Z,64.00
2018-01-31T20:15:26.409Z,63.50
2018-01-31T20:17:55.861Z,63.40
2018-01-31T20:20:24.161Z,63.30
2018-01-31T20:22:52.488Z,63.20
2018-01-31T20:42:37.727Z,63.00
2018-01-31T20:45:06.908Z,63.10
2018-01-31T20:47:36.597Z,63.10
2018-01-31T20:50:04.942Z,63.00
2018-01-31T20:52:34.016Z,63.10
2018-01-31T20:55:03.251Z,63.00
2018-01-31T20:57:32.450Z,63.50
2018-01-31T21:00:01.912Z,63.40
2018-01-31T21:02:30.457Z,63.40
2018-01-31T21:22:15.091Z,63.90
2018-01-31T21:24:43.815Z,64.00
2018-01-31T21:27:12.658Z,64.20
2018-01-31T21:29:42.062Z,64.80
2018-01-31T21:32:11.022Z,64.70
2018-01-31T21:34:40.332Z,64.90
2018-01-31T21:37:09.213Z,64.70
2018-01-31T21:39:37.585Z,65.00
2018-01-31T21:42:06.672Z,65.00
2018-01-31T22:01:51.493Z,65.30
2018-01-31T22:04:20.331Z,65.50
2018-01-31T22:06:48.930Z,65.50
2018-01-31T22:09:18.543Z,65.50
2018-01-31T22:11:47.159Z,66.00
2018-01-31T22:14:16.673Z,65.40
2018-01-31T22:16:44.898Z,64.00
2018-01-31T22:19:14.113Z,63.10
2018-01-31T22:21:42.652Z,62.80
2018-01-31T22:41:28.652Z,65.10
2018-01-31T22:43:56.832Z,65.40
2018-01-31T22:46:25.377Z,66.00
2018-01-31T22:48:55.014Z,65.60
2018-01-31T22:51:23.932Z,65.90
2018-01-31T22:53:54.120Z,68.40
2018-01-31T22:56:22.519Z,68.40
2018-01-31T22:58:51.818Z,70.10
2018-01-31T23:01:21.236Z,71.20
2018-01-31T23:21:07.313Z,75.00
2018-01-31T23:23:36.614Z,74.20
2018-01-31T23:26:05.830Z,74.00
2018-01-31T23:28:35.362Z,74.80
2018-01-31T23:31:04.465Z,75.60
2018-01-31T23:33:33.188Z,75.30
2018-01-31T23:36:02.658Z,75.80
2018-01-31T23:38:31.722Z,76.40
2018-01-31T23:41:01.636Z,76.40
